Time;durP1;ratioP1;P1;durP2;ratioP2;P2;SDS_P1;SDS_P2;PMS_P1;PMS_P2;Temp;Humidity;BMP_temperature;BMP_pressure;BME280_temperature;BME280_humidity;BME280_pressure;Samples;Min_cycle;Max_cycle;Signal;HPM_P1;HPM_P2
2022/08/20 01:47:32;;;;;;;111.50;100.27;;;23.70;99.90;;;;;;6196246;22;20528;-81
2022/08/20 01:50:08;;;;;;;107.57;96.67;;;23.70;99.90;;;;;;6277028;22;20496;-81
2022/08/20 01:52:41;;;;;;;111.47;97.60;;;23.60;99.90;;;;;;6275887;22;20444;-78
2022/08/20 01:55:09;;;;;;;216.43;168.57;;;23.60;99.90;;;;;;6277022;22;20438;-81
2022/08/20 01:57:39;;;;;;;143.37;124.77;;;23.60;99.90;;;;;;6261711;22;20449;-80
2022/08/20 02:00:08;;;;;;;140.77;125.53;;;23.50;99.90;;;;;;6255788;22;20430;-81
2022/08/20 02:02:39;;;;;;;178.10;157.23;;;23.50;99.90;;;;;;6276613;22;20434;-80
2022/08/20 02:05:18;;;;;;;144.17;125.50;;;23.50;99.90;;;;;;6277114;22;20436;-79
2022/08/20 02:07:46;;;;;;;144.40;129.40;;;23.40;99.90;;;;;;6275511;22;20509;-80
2022/08/20 02:10:15;;;;;;;136.77;121.67;;;23.40;99.90;;;;;;6276662;22;20425;-78
2022/08/20 02:12:42;;;;;;;96.40;86.20;;;23.30;99.90;;;;;;6276930;22;20461;-79
2022/08/20 02:15:11;;;;;;;60.00;53.60;;;23.30;99.90;;;;;;6276961;22;20449;-80
2022/08/20 02:17:40;;;;;;;30.00;27.00;;;23.20;99.90;;;;;;6276236;22;20441;-79
2022/08/20 02:20:13;;;;;;;19.97;18.00;;;23.10;99.90;;;;;;6277206;22;20453;-79
2022/08/20 02:22:44;;;;;;;23.93;21.53;;;23.10;99.90;;;;;;6276694;22;20434;-78
2022/08/20 02:25:12;;;;;;;28.60;25.90;;;23.10;99.90;;;;;;6276977;22;20796;-80
2022/08/20 02:27:44;;;;;;;43.57;39.17;;;23.20;99.90;;;;;;6276036;22;20438;-80
2022/08/20 02:30:15;;;;;;;154.10;137.23;;;23.10;99.90;;;;;;6275292;22;20917;-79
2022/08/20 02:32:44;;;;;;;182.40;155.43;;;23.30;99.90;;;;;;6274136;22;20453;-79
2022/08/20 02:35:12;;;;;;;118.70;106.07;;;23.30;99.90;;;;;;6274610;22;20492;-80
2022/08/20 02:37:41;;;;;;;70.57;63.20;;;23.40;99.90;;;;;;6273922;22;20724;-81
2022/08/20 02:40:11;;;;;;;78.23;69.83;;;23.30;99.90;;;;;;6275672;22;20488;-81
2022/08/20 02:42:40;;;;;;;84.67;75.57;;;23.40;99.90;;;;;;6275017;22;20433;-79
2022/08/20 02:45:10;;;;;;;66.97;59.87;;;23.40;99.90;;;;;;6272398;22;20497;-76
2022/08/20 02:47:42;;;;;;;75.40;67.27;;;23.40;99.90;;;;;;6271781;22;20438;-80
2022/08/20 02:50:16;;;;;;;42.17;35.60;;;23.40;99.90;;;;;;6276930;22;20433;-80
2022/08/20 02:52:53;;;;;;;36.07;32.60;;;23.40;99.90;;;;;;6274760;22;20438;-77
2022/08/20 02:55:22;;;;;;;24.90;22.63;;;23.40;99.90;;;;;;6276379;22;20438;-80
2022/08/20 02:57:57;;;;;;;18.20;16.67;;;23.30;99.90;;;;;;6262968;22;20765;-78
2022/08/20 03:00:24;;;;;;;16.87;15.40;;;23.20;99.90;;;;;;6276704;22;20893;-79
2022/08/20 03:02:51;;;;;;;18.10;16.20;;;23.20;99.90;;;;;;6276322;22;20437;-82
2022/08/20 03:05:20;;;;;;;18.07;16.33;;;23.20;99.90;;;;;;6277132;22;20461;-79
2022/08/20 03:07:52;;;;;;;19.60;17.67;;;23.10;99.90;;;;;;6275667;22;20805;-80
2022/08/20 03:10:23;;;;;;;19.43;17.63;;;23.10;99.90;;;;;;6277004;22;20441;-80
2022/08/20 03:12:52;;;;;;;20.40;18.30;;;23.00;99.90;;;;;;6276481;22;20445;-80
2022/08/20 03:15:20;;;;;;;18.77;17.00;;;23.00;99.90;;;;;;6275748;22;20430;-81
2022/08/20 03:17:47;;;;;;;19.47;17.63;;;22.90;99.90;;;;;;6275750;22;20444;-80
2022/08/20 03:20:15;;;;;;;20.50;18.60;;;22.90;99.90;;;;;;6277111;22;20509;-80
2022/08/20 03:22:44;;;;;;;20.85;19.05;;;22.80;99.90;;;;;;6275698;22;20457;-79
2022/08/20 03:25:11;;;;;;;22.20;20.40;;;22.80;99.90;;;;;;6276903;22;20508;-79
2022/08/20 03:27:38;;;;;;;20.67;18.87;;;22.80;99.90;;;;;;6276235;22;20274;-80
2022/08/20 03:30:08;;;;;;;23.27;21.17;;;22.80;99.90;;;;;;6276320;22;20437;-80
2022/08/20 03:32:36;;;;;;;24.35;21.95;;;22.80;99.90;;;;;;6275547;22;20417;-81
2022/08/20 03:35:05;;;;;;;23.50;21.33;;;22.80;99.90;;;;;;6255236;22;20221;-81
2022/08/20 03:37:33;;;;;;;25.67;23.20;;;22.80;99.90;;;;;;6256521;22;20789;-80
2022/08/20 03:40:04;;;;;;;24.23;21.93;;;22.70;99.90;;;;;;6258632;22;20866;-80
2022/08/20 03:42:31;;;;;;;24.50;22.20;;;22.70;99.90;;;;;;6276550;22;20430;-80
2022/08/20 03:44:59;;;;;;;24.97;22.47;;;22.70;99.90;;;;;;6273227;22;20576;-80
2022/08/20 03:47:26;;;;;;;25.97;23.57;;;22.70;99.90;;;;;;6276651;22;20445;-79
2022/08/20 03:49:58;;;;;;;25.60;23.10;;;22.70;99.90;;;;;;6274869;22;20469;-80
2022/08/20 03:52:26;;;;;;;26.07;23.63;;;22.70;99.90;;;;;;6276819;22;20436;-78
2022/08/20 03:54:53;;;;;;;28.27;25.30;;;22.70;99.90;;;;;;6275708;22;20508;-80
2022/08/20 03:57:24;;;;;;;29.07;26.03;;;22.70;99.90;;;;;;6276361;22;20524;-80
2022/08/20 03:59:51;;;;;;;28.20;25.60;;;22.60;99.90;;;;;;6275551;22;20434;-79
2022/08/20 04:02:20;;;;;;;27.90;25.40;;;22.60;99.90;;;;;;6238202;22;20454;-80
2022/08/20 04:04:47;;;;;;;27.97;25.20;;;22.60;99.90;;;;;;6271312;22;20917;-81
2022/08/20 04:07:24;;;;;;;26.67;24.10;;;22.60;99.90;;;;;;6276018;22;20475;-81
2022/08/20 04:09:53;;;;;;;29.17;26.47;;;22.60;99.90;;;;;;6259752;22;20500;-79
2022/08/20 04:12:24;;;;;;;26.30;23.70;;;22.60;99.90;;;;;;6274909;22;20434;-79
2022/08/20 04:14:51;;;;;;;24.63;22.13;;;22.60;99.90;;;;;;6275328;22;20847;-80
2022/08/20 04:17:27;;;;;;;28.50;25.80;;;22.60;99.90;;;;;;6276170;22;20430;-79
2022/08/20 04:19:56;;;;;;;26.70;24.13;;;22.60;99.90;;;;;;6275542;22;20446;-79
2022/08/20 04:22:23;;;;;;;27.43;24.77;;;22.60;99.90;;;;;;6276318;22;20430;-79
2022/08/20 04:24:50;;;;;;;25.47;22.97;;;22.60;99.90;;;;;;6275391;22;20508;-79
2022/08/20 04:27:20;;;;;;;27.13;24.43;;;22.60;99.90;;;;;;6276035;22;20905;-80
2022/08/20 04:29:48;;;;;;;23.73;21.63;;;22.60;99.90;;;;;;6276121;22;20430;-81
2022/08/20 04:32:20;;;;;;;30.00;26.03;;;22.60;99.90;;;;;;6276771;22;20462;-79
2022/08/20 04:34:50;;;;;;;27.57;24.87;;;22.60;99.90;;;;;;6275498;22;20437;-80
2022/08/20 04:37:21;;;;;;;27.90;24.50;;;22.60;99.90;;;;;;6276379;22;20487;-80
2022/08/20 04:40:52;;;;;;;25.93;23.43;;;22.60;99.90;;;;;;6274960;22;20441;-80
2022/08/20 04:42:36;;;;;;;26.33;23.80;;;22.60;99.90;;;;;;6275066;22;20446;-80
2022/08/20 04:45:07;;;;;;;26.57;24.13;;;22.50;99.90;;;;;;6274671;22;20507;-79
2022/08/20 04:47:39;;;;;;;25.40;23.13;;;22.50;99.90;;;;;;6274979;22;20438;-81
2022/08/20 04:50:08;;;;;;;26.20;23.70;;;22.50;99.90;;;;;;6276969;22;20783;-81
2022/08/20 04:52:48;;;;;;;25.70;23.07;;;22.50;99.90;;;;;;6262572;22;20941;-79
2022/08/20 04:55:18;;;;;;;25.43;22.93;;;22.60;99.90;;;;;;6277400;22;20426;-79
2022/08/20 04:57:45;;;;;;;26.17;23.67;;;22.50;99.90;;;;;;6274969;22;20457;-81
2022/08/20 05:00:17;;;;;;;27.03;24.43;;;22.50;99.90;;;;;;6276649;22;20430;-79
2022/08/20 05:02:44;;;;;;;25.87;23.47;;;22.50;99.90;;;;;;6276267;22;20434;-81
2022/08/20 05:05:13;;;;;;;26.43;24.00;;;22.60;99.90;;;;;;6276169;22;20458;-81
2022/08/20 05:07:44;;;;;;;26.63;23.57;;;22.60;99.90;;;;;;6275924;22;20466;-80
2022/08/20 05:10:16;;;;;;;25.97;23.30;;;22.60;99.90;;;;;;6275870;22;20765;-81
2022/08/20 05:12:44;;;;;;;26.07;23.60;;;22.60;99.90;;;;;;6276160;22;20434;-81
2022/08/20 05:15:12;;;;;;;25.03;22.83;;;22.60;99.90;;;;;;6277100;22;20429;-81
2022/08/20 05:17:43;;;;;;;26.33;23.80;;;22.60;99.90;;;;;;6275938;22;20449;-81
2022/08/20 05:20:16;;;;;;;26.57;24.00;;;22.60;99.90;;;;;;6277499;22;20442;-79
2022/08/20 05:22:44;;;;;;;26.77;24.27;;;22.60;99.90;;;;;;6276304;22;20505;-80
2022/08/20 05:25:14;;;;;;;26.67;23.87;;;22.60;99.90;;;;;;6277052;22;20426;-81
2022/08/20 05:27:41;;;;;;;24.83;22.50;;;22.60;99.90;;;;;;6274873;22;20438;-80
2022/08/20 05:30:12;;;;;;;27.37;24.77;;;22.60;99.90;;;;;;6278467;22;20468;-77
2022/08/20 05:32:40;;;;;;;26.83;24.07;;;22.60;99.90;;;;;;6281038;22;20476;-81
2022/08/20 05:35:11;;;;;;;33.80;30.47;;;22.50;99.90;;;;;;6288059;22;20453;-80
2022/08/20 05:37:40;;;;;;;28.60;25.70;;;22.50;99.90;;;;;;6282263;22;20438;-79
2022/08/20 05:40:15;;;;;;;25.97;23.53;;;22.60;99.90;;;;;;6265437;22;20454;-79
2022/08/20 05:42:42;;;;;;;28.13;25.40;;;22.60;99.90;;;;;;6276352;22;20544;-81
2022/08/20 05:45:10;;;;;;;27.13;24.53;;;22.60;99.90;;;;;;6275155;22;20946;-79
2022/08/20 05:47:41;;;;;;;26.00;23.50;;;22.60;99.90;;;;;;6275487;22;20656;-81
2022/08/20 05:50:13;;;;;;;28.47;25.67;;;22.60;99.90;;;;;;6275630;22;20430;-79
2022/08/20 05:52:48;;;;;;;28.17;25.50;;;22.60;99.90;;;;;;6260960;22;20926;-79
2022/08/20 05:55:15;;;;;;;27.93;25.43;;;22.60;99.90;;;;;;6274982;22;20437;-79
2022/08/20 05:57:44;;;;;;;29.67;26.77;;;22.60;99.90;;;;;;6275900;22;20739;-79
2022/08/20 06:00:14;;;;;;;27.80;25.10;;;22.60;99.90;;;;;;6276099;22;20472;-79
2022/08/20 06:05:27;;;;;;;54.67;47.20;;;22.60;99.90;;;;;;6278889;22;20437;-81
2022/08/20 06:07:54;;;;;;;60.33;54.00;;;22.70;99.90;;;;;;6276081;22;20774;-82
2022/08/20 06:10:21;;;;;;;28.20;25.40;;;22.60;99.90;;;;;;6288274;22;20430;-81
2022/08/20 06:12:48;;;;;;;27.53;24.60;;;22.60;99.90;;;;;;6290286;22;20511;-81
2022/08/20 06:15:18;;;;;;;25.50;23.00;;;22.60;99.90;;;;;;6291677;22;20465;-82
2022/08/20 06:17:48;;;;;;;26.97;24.47;;;22.60;99.90;;;;;;6291222;22;20439;-81
2022/08/20 06:20:15;;;;;;;26.60;23.90;;;22.70;99.90;;;;;;6287061;22;20446;-79
2022/08/20 06:22:42;;;;;;;28.27;25.57;;;22.70;99.90;;;;;;6280480;22;20430;-80
2022/08/20 06:25:10;;;;;;;29.97;26.87;;;22.70;99.90;;;;;;6279387;22;20461;-78
2022/08/20 06:27:39;;;;;;;29.43;26.73;;;22.70;99.90;;;;;;6277413;22;20787;-80
2022/08/20 06:30:07;;;;;;;26.97;24.30;;;22.70;99.90;;;;;;6278849;22;20437;-82
2022/08/20 06:32:36;;;;;;;26.27;23.83;;;22.70;99.90;;;;;;6277778;22;20430;-82
2022/08/20 06:35:10;;;;;;;28.33;25.47;;;22.70;99.90;;;;;;6278532;22;20475;-81
2022/08/20 06:37:40;;;;;;;27.53;24.73;;;22.70;99.90;;;;;;6278253;22;20434;-81
2022/08/20 06:40:10;;;;;;;27.73;24.90;;;22.70;99.90;;;;;;6280145;22;20429;-79
2022/08/20 06:42:42;;;;;;;28.13;25.37;;;22.70;99.90;;;;;;6285491;22;20440;-81
2022/08/20 06:45:10;;;;;;;26.17;23.77;;;22.70;99.90;;;;;;6281394;22;20501;-79
2022/08/20 06:47:44;;;;;;;27.97;25.33;;;22.70;99.90;;;;;;6283619;22;20441;-77
2022/08/20 06:50:14;;;;;;;28.13;25.27;;;22.70;99.90;;;;;;6282923;22;20433;-79
2022/08/20 06:52:44;;;;;;;28.53;25.90;;;22.70;99.90;;;;;;6279805;22;20458;-79
2022/08/20 06:55:16;;;;;;;25.80;23.30;;;22.70;99.90;;;;;;6285027;22;20513;-79
2022/08/20 06:57:43;;;;;;;27.30;24.80;;;22.70;99.90;;;;;;6282932;22;20462;-79
2022/08/20 07:00:15;;;;;;;27.10;24.57;;;22.70;99.90;;;;;;6279330;22;20496;-81
2022/08/20 07:02:42;;;;;;;26.70;24.13;;;22.80;99.90;;;;;;6278591;22;20430;-81
2022/08/20 07:05:12;;;;;;;27.97;24.97;;;22.80;99.90;;;;;;6277803;22;20437;-81
2022/08/20 07:07:45;;;;;;;29.50;26.80;;;22.80;99.90;;;;;;6278596;22;20797;-82
2022/08/20 07:10:16;;;;;;;26.63;24.07;;;22.80;99.90;;;;;;6275698;22;20422;-81
2022/08/20 07:12:45;;;;;;;27.40;24.80;;;22.80;99.90;;;;;;6278062;22;20441;-79
2022/08/20 07:15:14;;;;;;;26.90;24.60;;;22.80;99.90;;;;;;6276789;22;20432;-79
2022/08/20 07:17:42;;;;;;;38.87;35.07;;;22.80;99.90;;;;;;6238826;22;20435;-82
2022/08/20 07:20:14;;;;;;;28.67;25.93;;;22.70;99.90;;;;;;6256519;22;20457;-82
2022/08/20 07:22:50;;;;;;;31.20;28.17;;;22.80;99.90;;;;;;6255975;22;20438;-81
2022/08/20 07:25:20;;;;;;;29.00;26.13;;;22.80;99.90;;;;;;6276195;22;20457;-80
2022/08/20 07:27:49;;;;;;;26.77;24.20;;;22.80;99.90;;;;;;6278784;22;20437;-79
2022/08/20 07:33:06;;;;;;;27.70;24.93;;;22.80;99.90;;;;;;6277248;22;20565;-81
2022/08/20 07:35:33;;;;;;;27.50;24.90;;;22.80;99.90;;;;;;6241445;22;20518;-79
2022/08/20 07:38:01;;;;;;;30.30;27.30;;;22.80;99.90;;;;;;6272062;22;20457;-78
2022/08/20 07:40:30;;;;;;;29.17;26.37;;;22.80;99.90;;;;;;6277236;22;20430;-79
2022/08/20 07:43:09;;;;;;;30.67;27.50;;;22.80;99.90;;;;;;6278435;22;20503;-79
2022/08/20 07:45:36;;;;;;;29.50;26.50;;;22.80;99.90;;;;;;6278017;22;20469;-79
2022/08/20 07:48:07;;;;;;;29.83;26.97;;;22.80;99.90;;;;;;6253661;22;20438;-79
2022/08/20 07:50:34;;;;;;;31.00;28.10;;;22.80;99.90;;;;;;6257423;22;20499;-79
2022/08/20 07:53:03;;;;;;;28.00;25.40;;;22.80;99.90;;;;;;6277859;22;20491;-81
2022/08/20 07:55:31;;;;;;;30.23;27.30;;;22.80;99.90;;;;;;6277904;22;20925;-81
2022/08/20 07:58:06;;;;;;;32.00;28.80;;;22.80;99.90;;;;;;6277524;22;20525;-81
2022/08/20 08:00:35;;;;;;;33.00;29.43;;;22.80;99.90;;;;;;6277472;22;20434;-81
2022/08/20 08:03:02;;;;;;;31.30;28.00;;;22.80;99.90;;;;;;6277177;22;20460;-81
2022/08/20 08:05:30;;;;;;;33.10;28.73;;;22.80;99.90;;;;;;6277726;22;20934;-79
2022/08/20 08:07:57;;;;;;;30.57;27.37;;;22.80;99.90;;;;;;6276340;22;20433;-79
2022/08/20 08:10:26;;;;;;;30.10;27.40;;;22.80;99.90;;;;;;6277620;22;20430;-81
2022/08/20 08:13:02;;;;;;;32.03;29.00;;;22.80;99.90;;;;;;6278107;22;20434;-80
2022/08/20 08:15:32;;;;;;;30.77;27.67;;;22.80;99.90;;;;;;6277812;22;20438;-79
2022/08/20 08:18:08;;;;;;;30.60;27.40;;;22.80;99.90;;;;;;6275491;22;20517;-79
2022/08/20 08:20:42;;;;;;;30.70;27.70;;;22.90;99.90;;;;;;6247930;22;20438;-79
2022/08/20 08:23:12;;;;;;;29.80;26.70;;;22.90;99.90;;;;;;6225764;22;20714;-79
2022/08/20 08:25:47;;;;;;;40.20;30.57;;;22.90;99.90;;;;;;6276319;22;20441;-79
2022/08/20 08:28:14;;;;;;;32.37;28.97;;;22.90;99.90;;;;;;6275947;22;20441;-78
2022/08/20 08:30:42;;;;;;;33.60;30.20;;;22.90;99.90;;;;;;6276784;22;20441;-81
2022/08/20 08:33:27;;;;;;;34.43;31.00;;;22.90;99.90;;;;;;6275248;22;20517;-78
2022/08/20 08:36:05;;;;;;;33.93;30.47;;;22.90;99.90;;;;;;6277506;22;20447;-80
2022/08/20 08:38:34;;;;;;;34.53;31.03;;;23.00;99.90;;;;;;6277189;22;20436;-79
2022/08/20 08:41:12;;;;;;;32.77;29.67;;;23.00;99.90;;;;;;6275387;22;20426;-81
2022/08/20 08:43:44;;;;;;;33.80;30.57;;;22.90;99.90;;;;;;6275348;22;20517;-80
2022/08/20 08:46:12;;;;;;;32.30;29.10;;;23.00;99.90;;;;;;6276271;22;20504;-81
2022/08/20 08:48:44;;;;;;;33.57;30.20;;;23.00;99.90;;;;;;6263942;22;20870;-81
2022/08/20 08:51:13;;;;;;;36.17;32.57;;;23.00;99.90;;;;;;6261784;22;20501;-80
2022/08/20 08:53:44;;;;;;;32.97;29.50;;;23.00;99.90;;;;;;6277450;22;20932;-80
2022/08/20 08:56:14;;;;;;;32.10;28.90;;;23.10;99.90;;;;;;6263338;22;20458;-81
2022/08/20 08:58:50;;;;;;;34.53;31.13;;;23.10;99.90;;;;;;6276788;22;20547;-81
2022/08/20 09:01:22;;;;;;;33.67;30.10;;;23.10;99.90;;;;;;6276194;22;20881;-81
2022/08/20 09:03:53;;;;;;;33.67;30.37;;;23.10;99.90;;;;;;6277453;22;20442;-78
2022/08/20 09:06:25;;;;;;;34.87;31.37;;;23.20;99.90;;;;;;6275288;22;20786;-80
2022/08/20 09:09:02;;;;;;;35.43;31.80;;;23.20;99.90;;;;;;6274653;22;20434;-80
2022/08/20 09:11:31;;;;;;;29.23;26.20;;;23.20;99.90;;;;;;6275221;22;20430;-80
2022/08/20 09:13:58;;;;;;;32.53;29.37;;;23.20;99.90;;;;;;6275952;22;20795;-82
2022/08/20 09:16:27;;;;;;;30.77;27.57;;;23.30;99.90;;;;;;6233583;22;20442;-80
2022/08/20 09:18:54;;;;;;;34.00;30.80;;;23.30;99.90;;;;;;6275954;22;20505;-79
2022/08/20 09:21:21;;;;;;;31.17;28.17;;;23.40;99.90;;;;;;6274188;22;20465;-79
2022/08/20 09:23:48;;;;;;;33.97;30.27;;;23.40;99.90;;;;;;6277143;22;20492;-80
2022/08/20 09:26:17;;;;;;;33.77;30.43;;;23.40;99.90;;;;;;6275047;22;20492;-79
2022/08/20 09:28:45;;;;;;;33.17;29.67;;;23.40;99.90;;;;;;6276493;22;20426;-81
2022/08/20 09:31:16;;;;;;;32.30;29.30;;;23.40;99.90;;;;;;6274503;22;20909;-81
2022/08/20 09:33:43;;;;;;;33.80;30.50;;;23.50;99.90;;;;;;6278546;22;20438;-81
2022/08/20 09:36:12;;;;;;;33.73;30.27;;;23.40;99.90;;;;;;6264163;22;20434;-82
2022/08/20 09:38:39;;;;;;;34.83;31.33;;;23.50;99.90;;;;;;6277558;22;20453;-81
2022/08/20 09:41:06;;;;;;;32.47;29.10;;;23.40;99.90;;;;;;6278563;22;20426;-82
2022/08/20 09:43:36;;;;;;;31.83;28.63;;;23.40;99.90;;;;;;6279877;22;20472;-81
2022/08/20 09:46:05;;;;;;;34.33;30.97;;;23.40;99.90;;;;;;6278863;22;20708;-81
2022/08/20 09:48:35;;;;;;;33.00;29.57;;;23.40;99.90;;;;;;6277900;22;20438;-81
2022/08/20 09:51:03;;;;;;;33.70;30.00;;;23.50;99.90;;;;;;6278979;22;20913;-82
2022/08/20 09:53:30;;;;;;;30.93;27.83;;;23.40;99.90;;;;;;6277379;22;20503;-81
2022/08/20 09:55:58;;;;;;;29.63;26.63;;;23.50;99.90;;;;;;6278691;22;20457;-79
2022/08/20 09:58:32;;;;;;;30.07;27.10;;;23.50;99.90;;;;;;6277084;22;20772;-81
2022/08/20 10:01:01;;;;;;;28.10;25.33;;;23.50;99.90;;;;;;6278180;22;20495;-82
2022/08/20 10:03:31;;;;;;;28.43;25.63;;;23.60;99.90;;;;;;6277695;22;20470;-82
2022/08/20 10:05:59;;;;;;;29.17;26.23;;;23.70;99.90;;;;;;6278063;22;20742;-79
2022/08/20 10:08:26;;;;;;;26.90;24.30;;;23.60;99.90;;;;;;6277080;22;20769;-79
2022/08/20 10:10:54;;;;;;;24.10;21.70;;;23.70;99.90;;;;;;6278029;22;20442;-79
2022/08/20 10:13:21;;;;;;;24.83;22.47;;;23.70;99.90;;;;;;6277226;22;20438;-79
2022/08/20 10:16:01;;;;;;;25.70;23.30;;;23.80;99.90;;;;;;6277599;22;20473;-82
2022/08/20 10:18:29;;;;;;;23.53;19.90;;;23.90;99.90;;;;;;6277280;22;20430;-82
2022/08/20 10:20:56;;;;;;;25.20;22.63;;;23.90;99.90;;;;;;6277640;22;20894;-82
2022/08/20 10:23:23;;;;;;;23.67;21.27;;;23.90;99.90;;;;;;6276920;22;20500;-82
2022/08/20 10:25:50;;;;;;;24.73;22.43;;;24.00;99.90;;;;;;6277203;22;20725;-82
2022/08/20 10:28:17;;;;;;;23.20;20.80;;;24.00;99.90;;;;;;6277677;22;20454;-80
2022/08/20 10:30:48;;;;;;;23.83;21.37;;;24.00;99.90;;;;;;6276352;22;20441;-82
2022/08/20 10:33:17;;;;;;;21.73;19.80;;;24.00;99.90;;;;;;6277032;22;20433;-79
2022/08/20 10:35:45;;;;;;;21.97;19.97;;;24.00;99.90;;;;;;6256562;22;20446;-79
2022/08/20 10:38:12;;;;;;;19.87;18.17;;;24.10;99.90;;;;;;6256320;22;20484;-79
2022/08/20 10:40:43;;;;;;;20.70;18.90;;;24.10;99.90;;;;;;6276445;22;20434;-79
2022/08/20 10:43:10;;;;;;;20.20;18.40;;;24.10;99.90;;;;;;6277165;22;20434;-78
2022/08/20 10:45:37;;;;;;;21.77;19.67;;;24.20;99.90;;;;;;6277154;22;20753;-81
2022/08/20 10:48:06;;;;;;;20.23;18.43;;;24.20;99.90;;;;;;6277923;22;20488;-82
2022/08/20 10:50:33;;;;;;;23.27;19.50;;;24.20;99.90;;;;;;6277626;22;20765;-80
2022/08/20 10:53:02;;;;;;;18.27;16.47;;;24.20;99.90;;;;;;6278279;22;20430;-80
2022/08/20 10:55:29;;;;;;;17.30;15.87;;;24.30;99.90;;;;;;6277517;22;20491;-81
2022/08/20 10:57:56;;;;;;;18.60;17.00;;;24.30;99.90;;;;;;6277750;22;20505;-81
2022/08/20 11:00:25;;;;;;;19.60;17.70;;;24.30;99.90;;;;;;6277338;22;20458;-81
2022/08/20 11:02:54;;;;;;;22.40;16.30;;;24.30;99.90;;;;;;6275439;22;20497;-81
2022/08/20 11:05:21;;;;;;;18.20;16.43;;;24.30;99.90;;;;;;6277773;22;20434;-81
2022/08/20 11:07:48;;;;;;;17.50;16.00;;;24.30;99.90;;;;;;6276365;22;20446;-81
2022/08/20 11:10:19;;;;;;;17.33;15.60;;;24.30;99.90;;;;;;6277757;22;20434;-81
2022/08/20 11:12:46;;;;;;;16.87;15.17;;;24.30;99.90;;;;;;6277403;22;20434;-81
2022/08/20 11:15:15;;;;;;;17.77;16.20;;;24.40;99.90;;;;;;6276827;22;20437;-81
2022/08/20 11:17:45;;;;;;;17.83;16.23;;;24.40;99.90;;;;;;6276743;22;20504;-81
2022/08/20 11:20:15;;;;;;;17.33;15.70;;;24.40;99.90;;;;;;6278795;22;20926;-80
2022/08/20 11:22:42;;;;;;;15.00;13.60;;;24.40;99.90;;;;;;6277668;22;20509;-79
2022/08/20 11:25:10;;;;;;;13.43;12.23;;;24.40;99.90;;;;;;6277534;22;20430;-79
2022/08/20 11:27:41;;;;;;;14.40;13.00;;;24.40;99.90;;;;;;6274888;22;20476;-80
2022/08/20 11:30:12;;;;;;;13.93;12.73;;;24.40;99.90;;;;;;6277490;22;20909;-80
2022/08/20 11:32:40;;;;;;;13.37;12.17;;;24.40;99.90;;;;;;6276295;22;20438;-79
2022/08/20 11:35:08;;;;;;;14.23;12.83;;;24.40;99.90;;;;;;6277232;22;20792;-80
2022/08/20 11:37:35;;;;;;;12.60;11.40;;;24.40;99.90;;;;;;6276801;22;20439;-79
2022/08/20 11:40:02;;;;;;;12.80;11.80;;;24.40;99.90;;;;;;6277651;22;20426;-79
2022/08/20 11:42:31;;;;;;;12.00;11.00;;;24.50;99.90;;;;;;6252202;22;20449;-81
2022/08/20 11:45:03;;;;;;;12.13;11.13;;;24.50;99.90;;;;;;6263830;22;20430;-79
2022/08/20 11:47:32;;;;;;;12.07;11.00;;;24.50;99.90;;;;;;6276002;22;20798;-80
2022/08/20 11:50:02;;;;;;;10.80;9.90;;;24.50;99.90;;;;;;6276430;22;20429;-81
2022/08/20 11:52:30;;;;;;;9.97;9.07;;;24.40;99.90;;;;;;6277679;22;20457;-81
2022/08/20 11:54:58;;;;;;;9.87;9.07;;;24.40;99.90;;;;;;6281614;22;20746;-82
2022/08/20 11:57:27;;;;;;;11.10;10.10;;;24.40;99.90;;;;;;6281820;22;20433;-82
2022/08/20 11:59:56;;;;;;;10.03;9.23;;;24.40;99.90;;;;;;6280991;22;20741;-81
2022/08/20 12:02:24;;;;;;;9.00;8.30;;;24.40;99.90;;;;;;6279143;22;20457;-82
2022/08/20 12:04:51;;;;;;;8.07;7.47;;;24.40;99.90;;;;;;6280320;22;20438;-79
2022/08/20 12:07:20;;;;;;;9.87;9.07;;;24.40;99.90;;;;;;6278113;22;20501;-80
2022/08/20 12:09:48;;;;;;;9.33;8.60;;;24.30;99.90;;;;;;6279307;22;20430;-80
2022/08/20 12:12:16;;;;;;;10.60;9.80;;;24.30;99.90;;;;;;6280159;22;20544;-79
2022/08/20 12:14:43;;;;;;;10.43;9.63;;;24.40;99.90;;;;;;6274866;22;20434;-79
2022/08/20 12:17:12;;;;;;;10.07;9.23;;;24.30;99.90;;;;;;6281611;22;20509;-80
2022/08/20 12:19:42;;;;;;;9.33;8.60;;;24.30;99.90;;;;;;6289822;22;20457;-81
2022/08/20 12:22:11;;;;;;;9.50;8.60;;;24.30;99.90;;;;;;6293606;22;20418;-81
2022/08/20 12:24:39;;;;;;;8.43;7.73;;;24.30;99.90;;;;;;6295341;22;20735;-81
2022/08/20 12:27:10;;;;;;;9.90;9.00;;;24.40;99.90;;;;;;6292400;22;20601;-79
2022/08/20 12:29:38;;;;;;;8.67;7.97;;;24.40;99.90;;;;;;6286577;22;20438;-79
2022/08/20 12:32:06;;;;;;;8.03;7.43;;;24.40;99.90;;;;;;6258154;22;20509;-80
2022/08/20 12:34:33;;;;;;;8.07;7.17;;;24.40;99.90;;;;;;6261709;22;20434;-80
2022/08/20 12:37:09;;;;;;;7.90;7.30;;;24.30;99.90;;;;;;6281445;22;20798;-80
2022/08/20 12:39:38;;;;;;;8.30;7.60;;;24.40;99.90;;;;;;6267220;22;20426;-79
2022/08/20 12:42:05;;;;;;;8.47;7.87;;;24.40;99.90;;;;;;6284962;22;20430;-79
2022/08/20 12:44:38;;;;;;;7.90;7.30;;;24.40;99.90;;;;;;6280755;22;20430;-79
2022/08/20 12:47:07;;;;;;;8.00;7.40;;;24.40;99.90;;;;;;6277711;22;20438;-80
2022/08/20 12:49:35;;;;;;;7.90;7.20;;;24.40;99.90;;;;;;6277810;22;20448;-78
2022/08/20 12:52:06;;;;;;;8.67;8.00;;;24.40;99.90;;;;;;6278858;22;20437;-80
2022/08/20 12:54:34;;;;;;;10.63;9.47;;;24.40;99.90;;;;;;6278888;22;20432;-79
2022/08/20 12:57:01;;;;;;;8.40;7.80;;;24.30;99.90;;;;;;6280245;22;20442;-77
2022/08/20 12:59:29;;;;;;;8.47;7.77;;;24.40;99.90;;;;;;6279516;22;20430;-79
2022/08/20 13:01:56;;;;;;;8.63;7.93;;;24.40;99.90;;;;;;6281423;22;20430;-77
2022/08/20 13:04:24;;;;;;;7.60;7.00;;;24.40;99.90;;;;;;6280494;22;20434;-77
2022/08/20 13:06:52;;;;;;;7.77;7.03;;;24.40;99.90;;;;;;6280135;22;20476;-77
2022/08/20 13:09:20;;;;;;;7.43;6.83;;;24.40;99.90;;;;;;6268096;22;20461;-78
2022/08/20 13:11:48;;;;;;;8.00;7.20;;;24.40;99.90;;;;;;6245367;22;20493;-78
2022/08/20 13:14:17;;;;;;;8.10;7.40;;;24.40;99.90;;;;;;6277591;22;20496;-79
2022/08/20 13:16:44;;;;;;;8.70;8.00;;;24.40;99.90;;;;;;6282002;22;20438;-79
2022/08/20 13:19:17;;;;;;;8.37;7.67;;;24.40;99.90;;;;;;6264254;22;20438;-78
2022/08/20 13:21:48;;;;;;;9.33;8.53;;;24.40;99.90;;;;;;6255354;22;20447;-79
2022/08/20 13:25:21;;;;;;;;;;;;;;;;;;;;;
2022/08/20 13:27:55;;;;;;;15.20;11.20;;;24.30;99.90;;;;;;6155681;23;20838;-80
2022/08/20 13:30:23;;;;;;;13.37;12.23;;;24.10;99.90;;;;;;6271814;22;20472;-78
2022/08/20 13:32:50;;;;;;;12.30;11.10;;;24.10;99.90;;;;;;6282541;22;20496;-76
2022/08/20 13:35:18;;;;;;;13.30;12.00;;;24.10;99.90;;;;;;6278519;22;20436;-76
2022/08/20 13:37:45;;;;;;;10.30;9.43;;;24.20;99.90;;;;;;6278060;22;20426;-76
2022/08/20 13:40:12;;;;;;;13.23;11.80;;;24.20;99.90;;;;;;6275963;22;20470;-77
2022/08/20 13:42:40;;;;;;;11.53;10.27;;;24.10;99.90;;;;;;6278270;22;20434;-78
2022/08/20 13:45:10;;;;;;;13.77;12.33;;;24.20;99.90;;;;;;6278790;22;20921;-79
2022/08/20 13:47:39;;;;;;;10.60;9.70;;;24.10;99.90;;;;;;6277775;22;20916;-78
2022/08/20 13:50:10;;;;;;;10.53;9.73;;;24.10;99.90;;;;;;6276947;22;20434;-78
2022/08/20 13:52:38;;;;;;;17.83;16.03;;;24.10;99.90;;;;;;6276729;22;20449;-79
2022/08/20 13:55:06;;;;;;;17.20;15.60;;;24.00;99.90;;;;;;6277554;22;20434;-80
2022/08/20 13:57:34;;;;;;;15.47;13.97;;;24.00;99.90;;;;;;6277576;22;20441;-80
2022/08/20 14:00:02;;;;;;;11.60;10.60;;;24.00;99.90;;;;;;6277136;22;20462;-79
2022/08/20 14:02:30;;;;;;;117.53;104.67;;;24.00;99.90;;;;;;6277588;22;20418;-79
2022/08/20 14:04:57;;;;;;;164.00;141.67;;;24.10;99.90;;;;;;6277688;22;20445;-78
2022/08/20 14:07:27;;;;;;;168.40;145.47;;;24.20;99.90;;;;;;6273817;22;20726;-79
2022/08/20 14:09:56;;;;;;;125.57;109.40;;;24.30;99.90;;;;;;6276035;22;20434;-80
2022/08/20 14:12:25;;;;;;;83.30;71.77;;;24.30;99.90;;;;;;6275268;22;20426;-80
2022/08/20 14:14:54;;;;;;;58.07;51.60;;;24.20;99.90;;;;;;6281901;22;20472;-80
2022/08/20 14:17:28;;;;;;;32.37;29.07;;;24.20;99.90;;;;;;6276535;22;20465;-80
2022/08/20 14:19:58;;;;;;;39.70;35.57;;;24.20;99.90;;;;;;6278619;22;20438;-81
2022/08/20 14:22:26;;;;;;;33.27;29.97;;;24.10;99.90;;;;;;6277375;22;20437;-80
2022/08/20 14:24:53;;;;;;;50.57;45.33;;;24.00;99.90;;;;;;6277825;22;20434;-80
2022/08/20 14:27:22;;;;;;;30.80;27.80;;;24.00;99.90;;;;;;6277086;22;20781;-80
2022/08/20 14:29:50;;;;;;;26.93;24.33;;;24.00;99.90;;;;;;6278206;22;20442;-80
2022/08/20 14:32:18;;;;;;;38.80;35.20;;;24.00;99.90;;;;;;6277002;22;20426;-80